Time;durP1;ratioP1;P1;durP2;ratioP2;P2;SDS_P1;SDS_P2;PMS_P1;PMS_P2;Temp;Humidity;BMP_temperature;BMP_pressure;BME280_temperature;BME280_humidity;BME280_pressure;Samples;Min_cycle;Max_cycle;Signal;HPM_P1;HPM_P2
2023/01/01 00:02:08;;;;;;;221.80;124.13;;;;;;;5.36;100.00;100871.47;5089784;28;20646;-54
2023/01/01 00:04:35;;;;;;;218.20;120.77;;;;;;;5.39;100.00;100870.66;5089452;28;20197;-52
2023/01/01 00:07:02;;;;;;;199.90;112.80;;;;;;;5.46;100.00;100867.31;5089584;28;20210;-52
2023/01/01 00:12:26;;;;;;;159.90;85.60;;;;;;;5.44;100.00;100882.72;5046935;28;20192;-52
2023/01/01 00:14:53;;;;;;;143.33;78.03;;;;;;;5.32;100.00;100884.25;5079409;28;20285;-54
2023/01/01 00:17:20;;;;;;;127.20;64.23;;;;;;;5.07;100.00;100890.78;5089613;28;20590;-52
2023/01/01 00:19:46;;;;;;;108.57;54.77;;;;;;;4.93;100.00;100884.53;5089124;28;20223;-50
2023/01/01 00:22:13;;;;;;;96.30;52.87;;;;;;;4.85;100.00;100879.28;5089893;28;20713;-49
2023/01/01 00:24:40;;;;;;;103.43;53.23;;;;;;;4.83;100.00;100877.53;5089492;28;20249;-49
2023/01/01 00:27:07;;;;;;;104.53;53.33;;;;;;;4.81;100.00;100885.22;5089404;28;20201;-49
2023/01/01 00:29:35;;;;;;;90.67;50.47;;;;;;;4.83;100.00;100886.13;5089257;28;20196;-53
2023/01/01 00:32:02;;;;;;;93.90;50.00;;;;;;;4.89;100.00;100883.63;5089421;28;20202;-52
2023/01/01 00:34:29;;;;;;;99.87;50.30;;;;;;;4.91;100.00;100886.22;5089327;28;20286;-51
2023/01/01 00:36:57;;;;;;;95.53;51.77;;;;;;;4.95;100.00;100883.75;5089364;28;20205;-49
2023/01/01 00:39:24;;;;;;;91.27;50.20;;;;;;;5.00;100.00;100891.50;5089530;28;20613;-51
2023/01/01 00:42:00;;;;;;;95.03;49.73;;;;;;;4.99;100.00;100895.78;5089919;28;20218;-50
2023/01/01 00:44:27;;;;;;;93.47;50.10;;;;;;;4.97;100.00;100884.59;5089363;28;20670;-60
2023/01/01 00:47:05;;;;;;;91.37;49.67;;;;;;;5.05;100.00;100898.47;5089075;28;20334;-50
2023/01/01 00:49:35;;;;;;;96.13;49.60;;;;;;;5.05;100.00;100905.31;5089636;28;20205;-51
2023/01/01 00:52:09;;;;;;;89.13;49.47;;;;;;;4.95;100.00;100896.59;5089631;28;20199;-52
2023/01/01 00:54:36;;;;;;;89.97;48.37;;;;;;;4.98;100.00;100912.06;5089375;28;20552;-52
2023/01/01 00:57:03;;;;;;;82.87;45.97;;;;;;;5.02;100.00;100905.28;5089171;28;20234;-51
2023/01/01 00:59:53;;;;;;;85.63;44.90;;;;;;;4.96;100.00;100902.63;5089004;28;20223;-51
2023/01/01 01:02:33;;;;;;;80.20;42.03;;;;;;;4.94;100.00;100902.59;5087665;28;20202;-60
2023/01/01 01:05:00;;;;;;;81.47;43.43;;;;;;;4.98;100.00;100909.50;5089052;28;20199;-60
2023/01/01 01:07:27;;;;;;;82.07;42.83;;;;;;;4.95;100.00;100904.31;5088764;28;20195;-51
2023/01/01 01:09:54;;;;;;;77.77;44.03;;;;;;;4.96;100.00;100905.19;5088926;28;20210;-51
2023/01/01 01:12:20;;;;;;;83.40;42.87;;;;;;;4.83;100.00;100904.13;5088789;28;20210;-51
2023/01/01 01:14:47;;;;;;;83.30;45.03;;;;;;;4.89;100.00;100904.19;5088990;28;20252;-50
2023/01/01 01:17:14;;;;;;;80.00;45.77;;;;;;;4.91;100.00;100902.53;5089242;28;20196;-51
2023/01/01 01:19:42;;;;;;;80.87;43.17;;;;;;;4.95;100.00;100901.75;5092617;28;20253;-50
2023/01/01 01:22:09;;;;;;;88.23;45.33;;;;;;;4.85;100.00;100910.16;5092697;28;20205;-52
2023/01/01 01:24:36;;;;;;;83.77;44.60;;;;;;;4.67;100.00;100904.69;5092803;28;20206;-51
2023/01/01 01:27:03;;;;;;;90.53;46.03;;;;;;;4.79;100.00;100897.19;5092729;28;20205;-50
2023/01/01 01:29:30;;;;;;;80.83;45.30;;;;;;;4.73;100.00;100897.09;5092876;28;20639;-51
2023/01/01 01:31:57;;;;;;;85.33;45.37;;;;;;;4.71;100.00;100899.63;5092710;28;20208;-51
2023/01/01 01:34:24;;;;;;;83.57;44.73;;;;;;;4.76;100.00;100894.56;5092512;28;20195;-59
2023/01/01 01:36:52;;;;;;;83.03;44.17;;;;;;;4.76;100.00;100884.25;5092558;28;20195;-59
2023/01/01 01:39:19;;;;;;;79.40;43.60;;;;;;;4.80;100.00;100892.91;5092751;28;20263;-51
2023/01/01 01:41:46;;;;;;;83.00;44.67;;;;;;;4.78;100.00;100889.44;5092733;28;20201;-50
2023/01/01 01:44:47;;;;;;;78.57;43.83;;;;;;;4.81;100.00;100882.66;5092725;28;20231;-51
2023/01/01 01:47:17;;;;;;;78.57;44.87;;;;;;;4.86;100.00;100882.69;5092207;28;20245;-52
2023/01/01 01:49:45;;;;;;;82.93;44.60;;;;;;;4.84;100.00;100885.28;5092298;28;20302;-50
2023/01/01 01:52:14;;;;;;;84.97;44.17;;;;;;;4.62;100.00;100885.75;5092185;28;20205;-58
2023/01/01 01:54:42;;;;;;;80.60;44.13;;;;;;;4.63;100.00;100882.31;5091980;28;20205;-52
2023/01/01 01:57:12;;;;;;;76.30;42.37;;;;;;;4.50;100.00;100875.25;5092011;28;20204;-50
2023/01/01 01:59:47;;;;;;;76.40;42.60;;;;;;;4.48;100.00;100880.38;5091853;28;20221;-52
2023/01/01 02:02:18;;;;;;;76.97;42.87;;;;;;;4.50;100.00;100877.84;5092385;28;20199;-52
2023/01/01 02:04:46;;;;;;;75.43;42.20;;;;;;;4.51;100.00;100880.44;5091799;28;20193;-52
2023/01/01 02:07:15;;;;;;;76.80;43.37;;;;;;;4.37;100.00;100867.31;5092052;28;20202;-52
2023/01/01 02:09:42;;;;;;;75.07;42.30;;;;;;;4.54;100.00;100892.44;5091823;28;20224;-54
2023/01/01 02:12:09;;;;;;;74.43;41.63;;;;;;;4.45;100.00;100877.75;5091872;28;20192;-54
2023/01/01 02:14:36;;;;;;;73.37;40.33;;;;;;;4.43;100.00;100891.41;5091608;28;20199;-54
2023/01/01 02:17:09;;;;;;;71.83;40.70;;;;;;;4.42;100.00;100885.38;5092020;28;20199;-54
2023/01/01 02:19:48;;;;;;;66.83;38.40;;;;;;;4.42;100.00;100889.66;5091582;28;20202;-53
2023/01/01 02:22:25;;;;;;;72.67;39.43;;;;;;;4.43;100.00;100881.97;5091884;28;20563;-52
2023/01/01 02:25:04;;;;;;;70.40;39.33;;;;;;;4.36;100.00;100881.00;5091751;28;20222;-54
2023/01/01 02:27:44;;;;;;;66.80;37.83;;;;;;;4.32;100.00;100879.22;5090933;28;20195;-60
2023/01/01 02:30:13;;;;;;;67.83;38.00;;;;;;;4.36;100.00;100881.00;5090833;28;20201;-60
2023/01/01 02:32:44;;;;;;;65.53;37.30;;;;;;;4.29;100.00;100886.88;5091487;28;20588;-52
2023/01/01 02:35:35;;;;;;;60.40;36.93;;;;;;;4.14;100.00;100871.19;5091343;28;20652;-52
2023/01/01 02:38:08;;;;;;;67.17;37.57;;;;;;;4.20;100.00;100885.81;5091388;28;20577;-52
2023/01/01 02:40:39;;;;;;;60.20;35.57;;;;;;;4.31;100.00;100887.75;5091142;28;20235;-52
2023/01/01 02:43:07;;;;;;;62.77;36.27;;;;;;;4.34;100.00;100887.81;5091443;28;20573;-53
2023/01/01 02:45:35;;;;;;;65.07;36.10;;;;;;;4.50;100.00;100898.41;5091038;28;20194;-52
2023/01/01 02:48:06;;;;;;;59.00;35.77;;;;;;;4.53;100.00;100899.28;5091152;28;20206;-52
2023/01/01 02:50:35;;;;;;;66.17;37.80;;;;;;;4.35;100.00;100880.97;5091042;28;20218;-52
2023/01/01 02:53:09;;;;;;;70.83;36.17;;;;;;;4.45;100.00;100889.72;5090962;28;20252;-52
2023/01/01 02:55:46;;;;;;;66.87;35.40;;;;;;;4.44;100.00;100890.56;5090858;28;20198;-56
2023/01/01 03:01:12;;;;;;;58.20;35.13;;;;;;;4.36;100.00;100890.44;5090650;28;20265;-52
2023/01/01 03:03:42;;;;;;;61.17;35.23;;;;;;;4.44;100.00;100885.41;5090804;28;20195;-52
2023/01/01 03:06:25;;;;;;;59.53;35.07;;;;;;;4.55;100.00;100891.63;5091080;28;20206;-54
2023/01/01 03:09:01;;;;;;;56.73;34.87;;;;;;;4.62;100.00;100896.03;5090738;28;20203;-54
2023/01/01 03:11:35;;;;;;;62.80;34.87;;;;;;;4.67;100.00;100886.69;5091202;28;20199;-52
2023/01/01 03:14:08;;;;;;;55.27;34.53;;;;;;;4.61;100.00;100881.44;5090757;28;20698;-53
2023/01/01 03:16:41;;;;;;;60.40;34.90;;;;;;;4.63;100.00;100884.88;5090574;28;20590;-51
2023/01/01 03:19:15;;;;;;;58.33;35.30;;;;;;;4.68;100.00;100883.28;5090459;28;20232;-52
2023/01/01 03:21:46;;;;;;;62.27;34.87;;;;;;;4.69;100.00;100895.31;5090436;28;20714;-61
2023/01/01 03:24:20;;;;;;;58.07;33.13;;;;;;;4.46;100.00;100869.19;5090440;28;20206;-52
2023/01/01 03:26:52;;;;;;;60.37;34.27;;;;;;;4.49;100.00;100887.25;5090302;28;20624;-51
2023/01/01 03:29:22;;;;;;;59.97;34.27;;;;;;;4.43;100.00;100892.25;5090457;28;20192;-51
2023/01/01 03:31:53;;;;;;;58.53;34.60;;;;;;;4.36;100.00;100886.16;5090105;28;20282;-52
2023/01/01 03:34:26;;;;;;;64.27;35.27;;;;;;;4.34;100.00;100890.41;5090629;28;20637;-52
2023/01/01 03:36:58;;;;;;;63.00;35.20;;;;;;;4.40;100.00;100894.81;5089992;28;20234;-52
2023/01/01 03:39:30;;;;;;;65.10;35.83;;;;;;;4.33;100.00;100898.94;5089856;28;20290;-52
2023/01/01 03:42:08;;;;;;;63.23;37.13;;;;;;;4.25;100.00;100907.34;5089750;28;20220;-51
2023/01/01 03:44:40;;;;;;;67.80;37.77;;;;;;;4.19;100.00;100908.09;5090361;28;20669;-58
2023/01/01 03:47:09;;;;;;;67.70;37.63;;;;;;;4.09;100.00;100895.91;5089996;28;20197;-57
2023/01/01 03:49:36;;;;;;;68.40;39.77;;;;;;;3.97;100.00;100900.81;5089949;28;20202;-59
2023/01/01 03:52:20;;;;;;;71.13;40.57;;;;;;;4.07;100.00;100897.56;5089895;28;20199;-58
2023/01/01 03:54:53;;;;;;;67.60;38.93;;;;;;;4.20;100.00;100896.97;5089782;28;20281;-58
2023/01/01 03:57:25;;;;;;;78.17;40.67;;;;;;;4.32;100.00;100898.91;5090164;28;20456;-59
2023/01/01 03:59:59;;;;;;;67.40;38.53;;;;;;;4.41;100.00;100909.34;5089877;28;20797;-52
2023/01/01 04:02:33;;;;;;;69.87;38.90;;;;;;;4.34;100.00;100912.66;5090149;28;20202;-52
2023/01/01 04:05:03;;;;;;;71.40;39.63;;;;;;;4.32;100.00;100915.19;5089988;28;20198;-52
2023/01/01 04:07:31;;;;;;;67.87;39.47;;;;;;;4.36;100.00;100905.84;5090145;28;20212;-58
2023/01/01 04:10:01;;;;;;;69.80;39.40;;;;;;;4.32;100.00;100899.78;5089849;28;20200;-58
2023/01/01 04:12:29;;;;;;;75.77;40.60;;;;;;;4.30;100.00;100892.88;5090079;28;20232;-59
2023/01/01 04:14:56;;;;;;;70.00;39.43;;;;;;;4.28;100.00;100898.00;5089764;28;20219;-53
2023/01/01 04:17:23;;;;;;;68.03;38.93;;;;;;;4.32;100.00;100898.91;5089479;28;20325;-52
2023/01/01 04:19:51;;;;;;;63.60;38.47;;;;;;;4.41;100.00;100899.06;5089517;28;20206;-52
2023/01/01 04:22:22;;;;;;;69.23;39.17;;;;;;;4.35;100.00;100899.84;5089618;28;20607;-52
2023/01/01 04:24:48;;;;;;;68.70;38.80;;;;;;;4.43;100.00;100902.53;5090041;28;20199;-58
2023/01/01 04:27:15;;;;;;;65.00;37.60;;;;;;;4.44;100.00;100908.56;5089482;28;20196;-58
2023/01/01 04:29:42;;;;;;;71.10;38.80;;;;;;;4.36;100.00;100901.56;5088926;28;20207;-59
2023/01/01 04:32:09;;;;;;;73.47;40.23;;;;;;;4.08;100.00;100903.56;5089335;28;20195;-58
2023/01/01 04:34:36;;;;;;;71.37;38.90;;;;;;;4.08;100.00;100911.28;5089434;28;20551;-59
2023/01/01 04:37:04;;;;;;;66.50;39.30;;;;;;;4.09;100.00;100908.75;5089623;28;20286;-58
2023/01/01 04:39:31;;;;;;;71.10;39.33;;;;;;;4.10;100.00;100910.50;5089340;28;20613;-59
2023/01/01 04:41:58;;;;;;;72.37;38.53;;;;;;;4.11;100.00;100895.94;5089142;28;20231;-59
2023/01/01 04:44:25;;;;;;;64.73;37.37;;;;;;;4.19;100.00;100908.09;5089169;28;20213;-59
2023/01/01 04:46:52;;;;;;;69.77;38.20;;;;;;;4.21;100.00;100900.41;5088981;28;20567;-58
2023/01/01 04:49:18;;;;;;;61.50;37.27;;;;;;;4.23;100.00;100903.88;5088950;28;20206;-59
2023/01/01 04:51:45;;;;;;;68.40;37.83;;;;;;;4.19;100.00;100908.09;5089003;28;20221;-54
2023/01/01 04:54:14;;;;;;;65.47;37.60;;;;;;;4.25;100.00;100900.50;5093297;28;20203;-52
2023/01/01 04:56:41;;;;;;;67.53;37.57;;;;;;;4.17;100.00;100891.81;5093161;28;20198;-52
2023/01/01 04:59:08;;;;;;;62.73;37.33;;;;;;;4.06;100.00;100903.56;5093782;28;20199;-59
2023/01/01 05:01:34;;;;;;;70.67;37.33;;;;;;;4.05;100.00;100906.13;5093182;28;20609;-59
2023/01/01 05:04:02;;;;;;;67.80;37.43;;;;;;;4.01;100.00;100900.03;5093917;28;20926;-59
2023/01/01 05:06:29;;;;;;;63.93;38.03;;;;;;;4.02;100.00;100909.47;5113595;28;20194;-57
2023/01/01 05:08:57;;;;;;;65.03;36.70;;;;;;;4.06;100.00;100913.84;5113535;28;20198;-57
2023/01/01 05:11:26;;;;;;;69.27;38.07;;;;;;;3.99;100.00;100919.69;5112459;27;20277;-58
2023/01/01 05:13:55;;;;;;;72.23;39.83;;;;;;;3.89;100.00;100900.66;5112959;28;20198;-59
2023/01/01 05:16:23;;;;;;;68.90;37.83;;;;;;;4.01;100.00;100918.03;5113563;28;20573;-58
2023/01/01 05:18:51;;;;;;;67.47;38.53;;;;;;;4.06;100.00;100929.28;5113212;28;20195;-57
2023/01/01 05:21:20;;;;;;;65.83;38.80;;;;;;;4.09;100.00;100928.44;5113324;28;20230;-57
2023/01/01 05:23:48;;;;;;;64.33;36.77;;;;;;;4.11;100.00;100922.50;5096964;28;20206;-55
2023/01/01 05:26:17;;;;;;;64.37;38.00;;;;;;;4.14;100.00;100937.13;5092647;28;20199;-55
2023/01/01 05:28:46;;;;;;;66.37;37.40;;;;;;;4.18;100.00;100928.63;5092747;28;20199;-51
2023/01/01 05:31:14;;;;;;;63.73;37.50;;;;;;;4.13;100.00;100923.41;5092291;28;20204;-53
2023/01/01 05:33:42;;;;;;;69.77;38.23;;;;;;;4.18;100.00;100924.34;5092758;28;20195;-53
2023/01/01 05:36:14;;;;;;;67.67;38.07;;;;;;;4.23;100.00;100951.00;5092971;28;20602;-53
2023/01/01 05:38:41;;;;;;;69.90;37.30;;;;;;;4.26;100.00;100945.94;5092384;28;20195;-52
2023/01/01 05:41:09;;;;;;;67.90;38.07;;;;;;;4.19;100.00;100941.50;5092432;28;20608;-53
2023/01/01 05:43:36;;;;;;;60.63;35.93;;;;;;;4.23;100.00;100942.44;5092422;28;20203;-53
2023/01/01 05:46:07;;;;;;;64.43;37.83;;;;;;;4.11;100.00;100943.06;5092374;28;20195;-52
2023/01/01 05:48:35;;;;;;;67.37;38.23;;;;;;;4.14;100.00;100950.84;5092265;28;20195;-52
2023/01/01 05:51:03;;;;;;;56.27;35.67;;;;;;;4.08;100.00;100949.81;5092068;28;20202;-53
2023/01/01 05:53:30;;;;;;;71.40;37.57;;;;;;;4.06;100.00;100952.41;5091526;28;20707;-59
2023/01/01 05:55:57;;;;;;;67.83;36.30;;;;;;;3.81;100.00;100951.00;5071410;28;20220;-58
2023/01/01 05:58:24;;;;;;;59.33;35.50;;;;;;;3.79;100.00;100947.53;5071646;28;20224;-58
2023/01/01 06:00:52;;;;;;;71.07;36.17;;;;;;;3.87;100.00;100948.56;5070813;28;20327;-57
2023/01/01 06:03:20;;;;;;;87.67;41.47;;;;;;;3.93;100.00;100955.53;5077198;28;20223;-57
2023/01/01 06:05:47;;;;;;;92.73;43.17;;;;;;;3.98;100.00;100947.06;5091693;28;20196;-52
2023/01/01 06:08:14;;;;;;;106.77;51.30;;;;;;;3.98;100.00;100946.22;5091971;28;20249;-52
2023/01/01 06:10:41;;;;;;;129.17;58.77;;;;;;;4.02;100.00;100945.44;5091775;28;20687;-53
2023/01/01 06:13:08;;;;;;;113.00;55.00;;;;;;;4.06;100.00;100952.41;5091633;28;20282;-54
2023/01/01 06:15:35;;;;;;;112.77;52.17;;;;;;;4.08;100.00;100955.84;5091688;28;20209;-54
2023/01/01 06:18:02;;;;;;;105.97;52.33;;;;;;;4.09;100.00;100949.00;5091088;28;20191;-53
2023/01/01 06:20:30;;;;;;;98.57;47.67;;;;;;;4.23;100.00;100945.88;5091119;28;20202;-59
2023/01/01 06:22:57;;;;;;;104.60;50.57;;;;;;;4.23;100.00;100945.00;5091159;28;20227;-58
2023/01/01 06:25:24;;;;;;;99.27;48.13;;;;;;;4.27;100.00;100939.97;5091712;28;20202;-59
2023/01/01 06:27:51;;;;;;;93.87;47.40;;;;;;;4.34;100.00;100938.38;5091171;28;20215;-59
2023/01/01 06:30:17;;;;;;;91.03;43.07;;;;;;;4.33;100.00;100934.94;5091615;28;20278;-58
2023/01/01 06:32:44;;;;;;;86.80;44.30;;;;;;;4.43;100.00;100943.69;5091150;28;20202;-57
2023/01/01 06:35:11;;;;;;;77.53;41.03;;;;;;;4.44;100.00;100949.69;5091661;28;20203;-52
2023/01/01 06:37:39;;;;;;;75.77;39.40;;;;;;;4.45;100.00;100936.00;5091296;28;20431;-59
2023/01/01 06:40:07;;;;;;;80.20;39.83;;;;;;;4.57;100.00;100946.50;5091460;28;21305;-59
2023/01/01 06:42:34;;;;;;;74.40;37.80;;;;;;;4.52;100.00;100948.13;5091246;28;20220;-59
2023/01/01 06:45:01;;;;;;;82.63;42.73;;;;;;;4.50;100.00;100947.25;5091069;28;20199;-59
2023/01/01 06:47:28;;;;;;;78.50;41.60;;;;;;;4.58;100.00;100940.53;5090425;28;20195;-59
2023/01/01 06:49:55;;;;;;;73.03;41.73;;;;;;;4.71;100.00;100956.22;5090994;28;20195;-59
2023/01/01 06:52:22;;;;;;;77.60;42.00;;;;;;;4.75;100.00;100963.13;5091213;28;20199;-58
2023/01/01 06:54:50;;;;;;;80.93;43.13;;;;;;;4.75;100.00;100947.69;5090758;28;20199;-51
2023/01/01 06:57:17;;;;;;;89.43;47.53;;;;;;;4.95;100.00;100957.50;5090831;28;20701;-52
2023/01/01 06:59:44;;;;;;;99.47;50.93;;;;;;;5.02;100.00;100965.31;5090982;28;20277;-53
2023/01/01 07:02:11;;;;;;;96.60;54.60;;;;;;;5.00;100.00;100964.44;5091038;28;20226;-58
2023/01/01 07:04:38;;;;;;;104.23;56.07;;;;;;;5.01;100.00;100968.72;5090974;28;20773;-59
2023/01/01 07:07:06;;;;;;;104.63;55.83;;;;;;;5.09;100.00;100974.00;5090874;28;20195;-58
2023/01/01 07:09:33;;;;;;;101.47;53.47;;;;;;;5.11;100.00;100967.19;5090708;28;20213;-59
2023/01/01 07:12:01;;;;;;;87.47;48.30;;;;;;;5.19;100.00;100968.19;5090199;28;20226;-58
2023/01/01 07:14:28;;;;;;;81.87;46.50;;;;;;;5.27;100.00;100965.72;5089566;28;20200;-59
2023/01/01 07:16:55;;;;;;;79.67;44.80;;;;;;;5.32;100.00;100956.34;5089879;28;20205;-53
2023/01/01 07:19:21;;;;;;;76.60;41.50;;;;;;;5.43;100.00;100962.53;5090667;28;20675;-52
2023/01/01 07:21:52;;;;;;;64.97;38.00;;;;;;;5.51;100.00;100962.66;5088704;28;20211;-59
2023/01/01 07:24:19;;;;;;;64.07;37.30;;;;;;;5.55;100.00;100962.72;5090321;28;20247;-59
2023/01/01 07:26:47;;;;;;;57.87;36.33;;;;;;;5.67;100.00;100960.31;5088480;28;20596;-59
2023/01/01 07:29:16;;;;;;;64.97;37.20;;;;;;;5.72;100.00;100961.25;5087172;28;20223;-52
2023/01/01 07:31:44;;;;;;;60.53;34.70;;;;;;;5.79;100.00;100968.22;5089160;28;20675;-58
2023/01/01 07:34:14;;;;;;;57.87;35.83;;;;;;;5.87;100.00;100960.56;5081757;28;20215;-53
2023/01/01 07:36:41;;;;;;;60.87;36.90;;;;;;;5.96;100.00;100962.47;5083744;28;20199;-52
2023/01/01 07:39:08;;;;;;;65.63;37.30;;;;;;;6.08;100.00;100968.66;5086196;28;20581;-51
2023/01/01 07:41:35;;;;;;;63.90;39.00;;;;;;;6.14;100.00;100966.13;5084901;28;20230;-51
2023/01/01 07:44:02;;;;;;;64.83;37.13;;;;;;;6.14;100.00;100962.69;5087517;28;20199;-51
2023/01/01 07:46:31;;;;;;;65.30;37.80;;;;;;;6.23;100.00;100979.97;5087396;28;20557;-52
2023/01/01 07:48:58;;;;;;;58.93;35.63;;;;;;;6.29;100.00;100978.34;5087581;28;20332;-55
2023/01/01 07:51:25;;;;;;;57.10;33.53;;;;;;;6.33;100.00;100974.94;5087518;28;20653;-53
2023/01/01 07:53:51;;;;;;;55.37;31.30;;;;;;;6.36;100.00;100980.16;5086314;28;20202;-59
2023/01/01 07:56:18;;;;;;;51.67;32.23;;;;;;;6.36;100.00;100985.31;5087047;28;20200;-53
2023/01/01 07:58:45;;;;;;;50.67;30.80;;;;;;;6.50;100.00;100994.06;5087997;28;20191;-54
2023/01/01 08:01:14;;;;;;;49.77;30.77;;;;;;;6.56;100.00;100983.81;5087225;28;20199;-53
2023/01/01 08:03:42;;;;;;;46.67;29.13;;;;;;;6.51;100.00;100977.75;5085327;28;20626;-51
2023/01/01 08:06:10;;;;;;;48.10;28.43;;;;;;;6.51;100.00;100990.66;5086113;28;20195;-52
2023/01/01 08:08:37;;;;;;;50.87;29.13;;;;;;;6.54;100.00;101001.00;5086585;28;20226;-52
2023/01/01 08:11:05;;;;;;;43.83;29.33;;;;;;;6.64;100.00;100986.50;5086319;28;20474;-53
2023/01/01 08:13:32;;;;;;;48.83;27.87;;;;;;;6.73;100.00;100990.88;5085626;28;20197;-52
2023/01/01 08:15:59;;;;;;;42.03;27.97;;;;;;;6.72;100.00;101004.63;5086999;28;20279;-52
2023/01/01 08:18:26;;;;;;;48.43;30.03;;;;;;;6.76;100.00;101006.41;5087693;28;20191;-52
2023/01/01 08:20:56;;;;;;;58.63;35.23;;;;;;;6.98;100.00;101007.47;5086614;28;20206;-53
2023/01/01 08:23:23;;;;;;;57.73;35.33;;;;;;;7.02;100.00;100994.59;5084836;28;20226;-52
2023/01/01 08:25:49;;;;;;;63.10;36.90;;;;;;;7.21;100.00;101005.97;5087576;28;20576;-53
2023/01/01 08:28:16;;;;;;;58.70;36.47;;;;;;;7.31;100.00;101012.06;5087791;28;20199;-53
2023/01/01 08:30:43;;;;;;;63.90;38.33;;;;;;;7.40;100.00;101013.00;5085277;28;20192;-52
2023/01/01 08:33:10;;;;;;;63.10;38.53;;;;;;;7.48;100.00;101019.09;5087981;28;20194;-52
2023/01/01 08:35:40;;;;;;;65.53;41.80;;;;;;;7.60;100.00;101013.16;5088492;28;20202;-54
2023/01/01 08:38:10;;;;;;;70.10;42.10;;;;;;;7.65;100.00;101011.47;5088068;28;20192;-52
2023/01/01 08:40:37;;;;;;;61.03;38.70;;;;;;;7.60;100.00;101003.69;5086218;28;20313;-57
2023/01/01 08:43:04;;;;;;;59.37;37.90;;;;;;;7.78;100.00;101015.88;5087028;28;20219;-53
2023/01/01 08:45:31;;;;;;;56.53;35.67;;;;;;;7.84;100.00;101015.03;5087533;28;20191;-55
2023/01/01 08:47:58;;;;;;;58.10;34.67;;;;;;;7.94;100.00;101014.25;5087059;28;20201;-51
2023/01/01 08:50:24;;;;;;;53.47;32.63;;;;;;;7.99;100.00;101005.66;5086426;28;20198;-54
2023/01/01 08:52:51;;;;;;;47.13;31.57;;;;;;;8.08;100.00;101009.16;5086767;28;20195;-53
2023/01/01 08:55:20;;;;;;;52.03;31.23;;;;;;;8.19;100.00;101004.91;5083244;28;20199;-53
2023/01/01 08:57:46;;;;;;;46.63;30.07;;;;;;;8.25;100.00;101008.34;5083522;28;20206;-54
2023/01/01 09:00:15;;;;;;;40.40;27.07;;;;;;;8.18;100.00;100996.28;5085096;28;20195;-52
2023/01/01 09:02:42;;;;;;;36.20;25.17;;;;;;;8.23;100.00;100994.59;5084871;28;20219;-53
2023/01/01 09:05:10;;;;;;;34.17;22.43;;;;;;;8.29;100.00;100993.72;5087396;28;20206;-51
2023/01/01 09:07:37;;;;;;;32.87;22.73;;;;;;;8.34;100.00;100986.91;5087723;28;20203;-52
2023/01/01 09:10:04;;;;;;;35.23;23.10;;;;;;;8.42;100.00;100987.78;5087438;28;20192;-52
2023/01/01 09:12:36;;;;;;;34.93;21.57;;;;;;;8.49;100.00;100981.75;5087834;28;20202;-52
2023/01/01 09:15:03;;;;;;;31.70;21.97;;;;;;;8.63;100.00;100979.22;5084998;28;20243;-51
2023/01/01 09:17:30;;;;;;;32.90;22.97;;;;;;;8.75;100.00;100976.66;5087589;28;20202;-52
2023/01/01 09:19:57;;;;;;;28.10;20.43;;;;;;;8.80;100.00;100981.84;5087495;28;20196;-51
2023/01/01 09:22:24;;;;;;;28.07;20.50;;;;;;;8.91;100.00;100974.97;5086426;28;20224;-53
2023/01/01 09:24:51;;;;;;;33.93;21.03;;;;;;;8.95;100.00;100966.31;5087579;28;20196;-53
2023/01/01 09:27:18;;;;;;;35.43;22.47;;;;;;;9.04;100.00;100968.91;5087722;28;20210;-53
2023/01/01 09:29:46;;;;;;;35.53;22.83;;;;;;;9.10;100.00;100964.59;5087607;28;20191;-53
2023/01/01 09:32:13;;;;;;;34.87;22.30;;;;;;;9.08;100.00;100942.16;5084473;28;20200;-52
2023/01/01 09:34:40;;;;;;;37.07;25.90;;;;;;;9.23;100.00;100959.44;5086659;28;20199;-54
2023/01/01 09:37:07;;;;;;;37.77;24.67;;;;;;;9.31;100.00;100955.97;5088130;28;20198;-58
2023/01/01 09:39:34;;;;;;;33.47;23.67;;;;;;;9.35;100.00;100949.06;5089971;28;20306;-58
2023/01/01 09:42:25;;;;;;;35.00;24.07;;;;;;;9.31;100.00;100944.75;5088147;28;20701;-60
2023/01/01 09:45:16;;;;;;;34.13;23.73;;;;;;;9.33;100.00;100941.28;5090763;28;20205;-58
2023/01/01 09:47:50;;;;;;;30.60;22.67;;;;;;;9.48;100.00;100942.16;5086153;28;20195;-59
2023/01/01 09:50:18;;;;;;;37.30;23.63;;;;;;;9.56;100.00;100935.22;5092124;28;20195;-53
2023/01/01 09:52:51;;;;;;;38.73;24.33;;;;;;;9.69;100.00;100937.78;5089492;28;20199;-58
2023/01/01 09:55:26;;;;;;;38.10;24.73;;;;;;;9.80;100.00;100929.97;5092295;28;20204;-58
2023/01/01 09:57:54;;;;;;;35.87;24.33;;;;;;;9.94;100.00;100933.34;5092378;28;20199;-58
2023/01/01 10:00:23;;;;;;;40.73;25.93;;;;;;;10.01;100.00;100924.69;5092347;28;20199;-59
2023/01/01 10:03:07;;;;;;;37.90;25.03;;;;;;;10.09;100.00;100933.31;5091603;28;20309;-59
2023/01/01 10:05:43;;;;;;;37.00;25.43;;;;;;;10.15;100.00;100935.88;5092081;28;20631;-58
2023/01/01 10:08:19;;;;;;;44.73;28.03;;;;;;;10.30;100.00;100931.50;5092074;28;20195;-53
2023/01/01 10:10:52;;;;;;;43.17;29.03;;;;;;;10.31;100.00;100922.84;5092288;28;20198;-53
2023/01/01 10:13:27;;;;;;;36.23;24.63;;;;;;;10.38;100.00;100920.25;5091936;28;20292;-53
2023/01/01 10:15:59;;;;;;;33.87;24.23;;;;;;;10.48;100.00;100924.50;5091540;28;20201;-52
2023/01/01 10:18:32;;;;;;;36.57;24.77;;;;;;;10.59;100.00;100924.44;5091851;28;20213;-53
2023/01/01 10:21:06;;;;;;;39.57;25.67;;;;;;;10.61;100.00;100914.88;5091872;28;20583;-57
2023/01/01 10:23:40;;;;;;;37.00;25.83;;;;;;;10.73;100.00;100907.00;5091459;28;20222;-58
2023/01/01 10:26:12;;;;;;;37.70;26.43;;;;;;;10.82;100.00;100909.56;5091644;28;20191;-58
2023/01/01 10:28:46;;;;;;;40.33;27.07;;;;;;;10.89;100.00;100907.75;5091973;28;20923;-58
2023/01/01 10:31:20;;;;;;;40.43;26.83;;;;;;;10.86;100.00;100895.66;5091791;28;20206;-59
2023/01/01 10:33:47;;;;;;;44.50;28.33;;;;;;;10.93;100.00;100900.81;5091959;28;20230;-59
2023/01/01 10:36:19;;;;;;;40.50;27.50;;;;;;;11.01;100.00;100902.47;5091595;28;20284;-58
2023/01/01 10:38:50;;;;;;;38.30;26.57;;;;;;;11.03;99.98;100897.25;5091375;28;20192;-57
2023/01/01 10:41:17;;;;;;;38.03;25.37;;;;;;;11.11;99.81;100898.91;5091817;28;20241;-57
2023/01/01 10:43:46;;;;;;;42.13;28.03;;;;;;;11.12;99.55;100900.63;5091460;28;20697;-58
2023/01/01 10:46:18;;;;;;;40.93;27.63;;;;;;;11.11;99.83;100882.44;5091289;28;20199;-58
2023/01/01 10:49:09;;;;;;;39.73;28.70;;;;;;;11.29;98.89;100887.47;5091195;28;20238;-58
2023/01/01 10:51:37;;;;;;;38.63;27.33;;;;;;;11.33;98.49;100889.16;5091185;28;20195;-58
2023/01/01 10:54:05;;;;;;;33.20;22.27;;;;;;;11.38;97.97;100887.41;5090971;28;20218;-58
2023/01/01 10:56:42;;;;;;;31.53;22.63;;;;;;;11.44;98.05;100882.13;5090461;28;20195;-57
2023/01/01 10:59:35;;;;;;;33.93;23.73;;;;;;;11.46;97.43;100874.31;5090911;28;20203;-53
2023/01/01 11:02:18;;;;;;;32.17;23.50;;;;;;;11.59;97.39;100875.91;5090646;28;20194;-59
2023/01/01 11:04:47;;;;;;;34.03;25.00;;;;;;;11.64;96.97;100867.16;5091361;28;20558;-57
2023/01/01 11:07:30;;;;;;;35.03;25.27;;;;;;;11.81;100.00;100863.53;5090748;28;20202;-59
2023/01/01 11:10:01;;;;;;;32.03;23.80;;;;;;;11.96;100.00;100872.00;5090599;28;20750;-58
2023/01/01 11:12:31;;;;;;;33.73;23.87;;;;;;;12.09;100.00;100872.69;5090843;28;20229;-57
2023/01/01 11:14:59;;;;;;;37.93;25.73;;;;;;;12.17;97.80;100865.66;5090606;28;20249;-57
2023/01/01 11:17:28;;;;;;;35.10;22.77;;;;;;;12.38;95.27;100874.06;5090768;28;20201;-52
2023/01/01 11:19:58;;;;;;;55.13;33.57;;;;;;;12.38;94.88;100868.84;5088096;28;20202;-52
2023/01/01 11:22:38;;;;;;;66.43;37.23;;;;;;;12.45;96.05;100860.91;5084197;28;20697;-53
2023/01/01 11:25:17;;;;;;;52.93;33.73;;;;;;;12.49;94.50;100860.00;5089202;28;20205;-52
2023/01/01 11:27:44;;;;;;;24.93;18.87;;;;;;;12.51;91.90;100860.84;5089149;28;20628;-52